Terminal Aerodrome Forecast
Issued by NWS

Home | Current Version | Previous Version | Text Only | Print | Product List | Glossary On
Versions: 1 2 3 4 5 6 7 8 9 10 11 12 13 14
000
FTUS42 KGSP 050520
TAFAND
TAF
KAND 050520Z 0506/0606 28008KT P6SM FEW250
     FM051400 30013G22KT P6SM SCT250
     FM051800 28016G28KT P6SM SCT060 PROB30 0519/0522 4SM -SHRA
      BKN060
     FM060000 30011G18KT P6SM FEW070
     FM060200 31007KT P6SM FEW070=

USA.gov is the U.S. government's official web portal to all federal, state and local government web resources and services.